Time;durP1;ratioP1;P1;durP2;ratioP2;P2;SDS_P1;SDS_P2;PMS_P1;PMS_P2;Temp;Humidity;BMP_temperature;BMP_pressure;BME280_temperature;BME280_humidity;BME280_pressure;Samples;Min_cycle;Max_cycle;Signal;HPM_P1;HPM_P2
2022/01/26 01:42:37;;;;;;;22.17;9.00;;;;;;;;;;6162870;23;20208;-91
2022/01/26 01:45:46;;;;;;;26.67;9.13;;;;;;;;;;6186573;23;20190;-90
2022/01/26 01:48:53;;;;;;;23.47;8.60;;;;;;;;;;6186926;23;20159;-91
2022/01/26 01:52:01;;;;;;;22.57;8.43;;;;;;;;;;6186089;23;20221;-91
2022/01/26 01:55:07;;;;;;;20.70;7.47;;;;;;;;;;6187412;23;20175;-91
2022/01/26 01:58:15;;;;;;;20.43;8.10;;;;;;;;;;6187205;23;20171;-91
2022/01/26 02:01:20;;;;;;;23.97;8.73;;;;;;;;;;6185594;23;20168;-91
2022/01/26 02:04:25;;;;;;;20.60;8.07;;;;;;;;;;6187875;23;20216;-90
2022/01/26 02:07:30;;;;;;;20.53;8.10;;;;;;;;;;6186422;23;20179;-90
2022/01/26 02:10:36;;;;;;;22.53;8.40;;;;;;;;;;6185761;23;20243;-91
2022/01/26 02:13:52;;;;;;;30.13;8.30;;;;;;;;;;6184994;23;20236;-90
2022/01/26 02:17:09;;;;;;;24.03;8.83;;;;;;;;;;6184760;23;20176;-91
2022/01/26 02:51:13;;;;;;;21.07;8.37;;;;;;;;;;6184978;23;20619;-90
2022/01/26 02:54:43;;;;;;;16.67;6.67;;;;;;;;;;6183021;23;20246;-90
2022/01/26 03:01:48;;;;;;;25.20;8.40;;;;;;;;;;6081989;23;20267;-91
2022/01/26 03:04:56;;;;;;;19.97;7.97;;;;;;;;;;6093742;23;20269;-90
2022/01/26 03:08:05;;;;;;;24.27;7.93;;;;;;;;;;6185490;23;20187;-90
2022/01/26 03:11:14;;;;;;;19.77;8.10;;;;;;;;;;6185362;23;20240;-89
2022/01/26 03:14:29;;;;;;;18.53;7.80;;;;;;;;;;6185015;23;20168;-93
2022/01/26 03:17:51;;;;;;;21.33;7.73;;;;;;;;;;6184253;23;20220;-91
2022/01/26 03:20:59;;;;;;;21.50;7.43;;;;;;;;;;6182759;23;20176;-90
2022/01/26 03:34:16;;;;;;;26.77;8.03;;;;;;;;;;6162572;23;20215;-91
2022/01/26 03:37:24;;;;;;;22.03;8.00;;;;;;;;;;6182895;23;20685;-90
2022/01/26 03:40:31;;;;;;;20.83;8.00;;;;;;;;;;6185223;23;20172;-91
2022/01/26 03:43:37;;;;;;;23.23;8.37;;;;;;;;;;6183628;23;20670;-91
2022/01/26 03:46:44;;;;;;;21.63;7.70;;;;;;;;;;6182832;23;20311;-90
2022/01/26 03:49:49;;;;;;;22.03;8.23;;;;;;;;;;6185586;23;20179;-92
2022/01/26 03:52:55;;;;;;;28.57;8.90;;;;;;;;;;6183824;23;20247;-89
2022/01/26 03:56:01;;;;;;;24.37;8.20;;;;;;;;;;6184035;23;20179;-91
2022/01/26 03:59:08;;;;;;;21.97;8.73;;;;;;;;;;6185377;23;20183;-91
2022/01/26 04:02:13;;;;;;;28.40;9.93;;;;;;;;;;6184462;23;20379;-93
2022/01/26 04:05:18;;;;;;;29.43;11.63;;;;;;;;;;6186287;23;20188;-89
2022/01/26 04:08:28;;;;;;;31.80;10.80;;;;;;;;;;6187686;23;20163;-89
2022/01/26 04:11:37;;;;;;;35.40;10.97;;;;;;;;;;6186569;23;20247;-92
2022/01/26 04:14:50;;;;;;;33.70;12.20;;;;;;;;;;6186782;23;20168;-90
2022/01/26 04:17:56;;;;;;;36.57;11.77;;;;;;;;;;6184781;23;20176;-91
2022/01/26 04:21:09;;;;;;;40.77;12.87;;;;;;;;;;6183239;23;20268;-91
2022/01/26 04:24:19;;;;;;;41.43;13.47;;;;;;;;;;6186863;23;20168;-89
2022/01/26 04:27:33;;;;;;;39.07;13.80;;;;;;;;;;6185553;23;20199;-90
2022/01/26 04:30:40;;;;;;;44.80;14.73;;;;;;;;;;6187220;23;20179;-90
2022/01/26 04:33:46;;;;;;;38.93;13.63;;;;;;;;;;6186240;23;20167;-90
2022/01/26 04:36:55;;;;;;;42.73;14.80;;;;;;;;;;6186146;23;20156;-91
2022/01/26 04:40:02;;;;;;;49.90;15.90;;;;;;;;;;6185817;23;20168;-92
2022/01/26 04:43:15;;;;;;;43.50;14.57;;;;;;;;;;6186579;23;20191;-92
2022/01/26 04:46:24;;;;;;;44.83;15.90;;;;;;;;;;6186584;23;20418;-91
2022/01/26 04:49:29;;;;;;;51.83;15.53;;;;;;;;;;6184151;23;20209;-92
2022/01/26 04:52:34;;;;;;;45.00;14.50;;;;;;;;;;6186976;23;20212;-91
2022/01/26 04:55:40;;;;;;;46.47;14.97;;;;;;;;;;6187675;23;20171;-91
2022/01/26 04:58:45;;;;;;;45.57;14.83;;;;;;;;;;6184407;23;20180;-91
2022/01/26 05:02:18;;;;;;;44.57;14.43;;;;;;;;;;6184611;23;20220;-89
2022/01/26 05:05:25;;;;;;;45.17;14.23;;;;;;;;;;6185617;23;20195;-91
2022/01/26 05:08:30;;;;;;;49.37;15.30;;;;;;;;;;6184996;23;20179;-92
2022/01/26 05:11:37;;;;;;;50.10;14.90;;;;;;;;;;6185605;23;20172;-92
2022/01/26 05:14:45;;;;;;;47.37;14.90;;;;;;;;;;6186606;23;20287;-92
2022/01/26 05:17:50;;;;;;;51.10;15.37;;;;;;;;;;6184548;23;20175;-91
2022/01/26 05:20:57;;;;;;;44.47;15.33;;;;;;;;;;6184427;23;20163;-90
2022/01/26 05:24:03;;;;;;;50.97;15.37;;;;;;;;;;6184426;23;20187;-91
2022/01/26 05:27:09;;;;;;;48.97;14.63;;;;;;;;;;6186512;23;20195;-91
2022/01/26 05:30:15;;;;;;;49.33;14.90;;;;;;;;;;6185610;23;20172;-92
2022/01/26 05:33:23;;;;;;;46.17;15.10;;;;;;;;;;6185939;23;20171;-91
2022/01/26 05:36:31;;;;;;;50.07;15.80;;;;;;;;;;6184923;23;20491;-91
2022/01/26 05:39:38;;;;;;;52.67;16.47;;;;;;;;;;6187875;23;20168;-92
2022/01/26 05:42:43;;;;;;;49.90;15.70;;;;;;;;;;6187238;23;20272;-90
2022/01/26 05:45:52;;;;;;;45.27;14.83;;;;;;;;;;6187528;23;20195;-92
2022/01/26 05:48:57;;;;;;;51.23;14.63;;;;;;;;;;6188185;23;20236;-92
2022/01/26 05:52:05;;;;;;;51.73;15.77;;;;;;;;;;6187914;23;20196;-92
2022/01/26 05:55:10;;;;;;;53.80;15.83;;;;;;;;;;6186393;23;20167;-92
2022/01/26 05:58:19;;;;;;;57.87;16.83;;;;;;;;;;6185636;23;20208;-91
2022/01/26 06:01:24;;;;;;;55.73;17.10;;;;;;;;;;6185766;23;20192;-92
2022/01/26 06:04:29;;;;;;;47.73;16.20;;;;;;;;;;6185829;23;20159;-91
2022/01/26 06:07:36;;;;;;;56.37;16.47;;;;;;;;;;6187063;23;20171;-92
2022/01/26 06:10:42;;;;;;;59.23;16.97;;;;;;;;;;6187411;23;20168;-91
2022/01/26 06:13:49;;;;;;;57.70;17.10;;;;;;;;;;6187639;23;20221;-93
2022/01/26 06:16:54;;;;;;;57.67;16.97;;;;;;;;;;6187607;23;20184;-92
2022/01/26 06:20:01;;;;;;;56.97;17.17;;;;;;;;;;6186834;23;20191;-91
2022/01/26 06:23:09;;;;;;;63.63;17.77;;;;;;;;;;6187981;23;20168;-93
2022/01/26 06:26:14;;;;;;;58.73;18.97;;;;;;;;;;6189141;23;20215;-92
2022/01/26 06:29:20;;;;;;;70.50;18.47;;;;;;;;;;6184712;23;20218;-89
2022/01/26 06:32:25;;;;;;;60.43;18.60;;;;;;;;;;6187227;23;20176;-92
2022/01/26 06:35:31;;;;;;;64.80;18.00;;;;;;;;;;6186226;23;20228;-91
2022/01/26 06:38:37;;;;;;;59.73;18.07;;;;;;;;;;6192063;23;20237;-89
2022/01/26 06:41:49;;;;;;;62.20;18.50;;;;;;;;;;6189218;23;20244;-90
2022/01/26 06:45:07;;;;;;;63.40;16.70;;;;;;;;;;6187443;23;20168;-91
2022/01/26 06:48:37;;;;;;;64.13;16.37;;;;;;;;;;6187838;23;20180;-92
2022/01/26 06:51:40;;;;;;;66.57;18.27;;;;;;;;;;6187609;23;20179;-89
2022/01/26 06:54:47;;;;;;;65.73;17.77;;;;;;;;;;6189483;23;20211;-89
2022/01/26 06:57:54;;;;;;;71.63;18.37;;;;;;;;;;6188942;23;20179;-91
2022/01/26 07:01:00;;;;;;;73.17;18.37;;;;;;;;;;6190054;23;20168;-91
2022/01/26 07:04:06;;;;;;;64.00;17.83;;;;;;;;;;6190173;23;20175;-90
2022/01/26 07:07:13;;;;;;;93.53;18.67;;;;;;;;;;6189185;23;20195;-90
2022/01/26 07:10:20;;;;;;;79.80;18.00;;;;;;;;;;6187460;23;20167;-92
2022/01/26 07:24:09;;;;;;;78.77;18.73;;;;;;;;;;6188921;23;20188;-91
2022/01/26 07:30:56;;;;;;;71.50;17.67;;;;;;;;;;6189249;23;20522;-91
2022/01/26 23:30:26;;;;;;;34.87;13.43;;;;;;;;;;6149151;23;20227;-90
2022/01/26 23:34:03;;;;;;;42.07;14.20;;;;;;;;;;6155803;23;20217;-92
2022/01/26 23:37:32;;;;;;;34.97;13.50;;;;;;;;;;6154548;23;20177;-91
2022/01/26 23:40:56;;;;;;;33.43;12.83;;;;;;;;;;6157850;23;20171;-91
2022/01/26 23:44:24;;;;;;;36.93;14.00;;;;;;;;;;6157871;23;20172;-90
2022/01/26 23:58:31;;;;;;;35.17;14.10;;;;;;;;;;6173670;23;20194;-92
